AUA101 LOWW-LOWI
Flight info
| Callsign | AUA101 |
|---|---|
| Flight time | 0h 54m |
| Altitude | 24000 |
| Route | OSPEN4C OSPEN DCT ABRUK DCT SETAL DCT NANIT NANIT2A |
| Aircraft | DH8D/M-SDFGIRY/H |
Departure
| Time | 2026-05-07 07:47 |
|---|---|
| Airport | Vienna International Airport (LOWW) |
Arrival
| Time | 2026-05-07 08:41 |
|---|---|
| Airport | Innsbruck Airport (LOWI) |
| Time | Latitude | Longitude | Altitude | Speed | Heading |
|---|---|---|---|---|---|
| 2026-05-07 07:31 | 48.11745 | 16.57178 | 602 ft | 0 kts | 205° |
| 2026-05-07 07:39 | 48.11687 | 16.57147 | 603 ft | 7 kts | 175° |
| 2026-05-07 07:39 | 48.11652 | 16.57240 | 603 ft | 15 kts | 109° |
| 2026-05-07 07:39 | 48.11604 | 16.57376 | 604 ft | 14 kts | 112° |
| 2026-05-07 07:39 | 48.11563 | 16.57501 | 605 ft | 12 kts | 115° |
| 2026-05-07 07:40 | 48.11507 | 16.57595 | 605 ft | 16 kts | 164° |
| 2026-05-07 07:40 | 48.11386 | 16.57650 | 606 ft | 17 kts | 164° |
| 2026-05-07 07:40 | 48.11272 | 16.57697 | 608 ft | 16 kts | 165° |
| 2026-05-07 07:40 | 48.11169 | 16.57741 | 609 ft | 14 kts | 165° |
| 2026-05-07 07:41 | 48.11076 | 16.57780 | 609 ft | 14 kts | 163° |
| 2026-05-07 07:41 | 48.10926 | 16.57841 | 611 ft | 29 kts | 165° |
| 2026-05-07 07:41 | 48.10733 | 16.57922 | 613 ft | 26 kts | 164° |
| 2026-05-07 07:41 | 48.10569 | 16.57994 | 615 ft | 22 kts | 164° |
| 2026-05-07 07:42 | 48.10433 | 16.58052 | 615 ft | 18 kts | 163° |
| 2026-05-07 07:42 | 48.10316 | 16.58098 | 616 ft | 16 kts | 165° |
| 2026-05-07 07:42 | 48.10211 | 16.58149 | 616 ft | 15 kts | 161° |
| 2026-05-07 07:42 | 48.10110 | 16.58189 | 617 ft | 14 kts | 165° |
| 2026-05-07 07:43 | 48.10016 | 16.58230 | 617 ft | 13 kts | 161° |
| 2026-05-07 07:43 | 48.09925 | 16.58269 | 616 ft | 13 kts | 167° |
| 2026-05-07 07:43 | 48.09831 | 16.58307 | 616 ft | 15 kts | 163° |
| 2026-05-07 07:43 | 48.09709 | 16.58360 | 615 ft | 20 kts | 166° |
| 2026-05-07 07:44 | 48.09633 | 16.58449 | 613 ft | 12 kts | 94° |
| 2026-05-07 07:44 | 48.09673 | 16.58551 | 612 ft | 11 kts | 25° |
| 2026-05-07 07:44 | 48.09692 | 16.58558 | 612 ft | 0 kts | 10° |
| 2026-05-07 07:45 | 48.09728 | 16.58567 | 612 ft | 14 kts | 8° |
| 2026-05-07 07:45 | 48.09828 | 16.58591 | 613 ft | 14 kts | 9° |
| 2026-05-07 07:45 | 48.09933 | 16.58614 | 613 ft | 14 kts | 6° |
| 2026-05-07 07:46 | 48.10051 | 16.58620 | 614 ft | 23 kts | 355° |
| 2026-05-07 07:46 | 48.10313 | 16.58522 | 614 ft | 76 kts | 343° |
| 2026-05-07 07:46 | 48.11074 | 16.58205 | 610 ft | 144 kts | 343° |
| 2026-05-07 07:46 | 48.12107 | 16.57834 | 937 ft | 160 kts | 343° |
| 2026-05-07 07:47 | 48.13212 | 16.57379 | 1501 ft | 169 kts | 339° |
| 2026-05-07 07:47 | 48.14335 | 16.56824 | 2149 ft | 172 kts | 331° |
| 2026-05-07 07:47 | 48.15075 | 16.55525 | 2694 ft | 173 kts | 281° |
| 2026-05-07 07:47 | 48.14755 | 16.53830 | 3182 ft | 183 kts | 230° |
| 2026-05-07 07:48 | 48.13712 | 16.52701 | 3730 ft | 189 kts | 215° |
| 2026-05-07 07:48 | 48.12587 | 16.51683 | 4298 ft | 191 kts | 214° |
| 2026-05-07 07:48 | 48.11432 | 16.50642 | 4663 ft | 208 kts | 213° |
| 2026-05-07 07:48 | 48.10143 | 16.49481 | 5038 ft | 219 kts | 213° |
| 2026-05-07 07:49 | 48.08821 | 16.48293 | 5557 ft | 224 kts | 213° |
| 2026-05-07 07:49 | 48.07513 | 16.47051 | 6121 ft | 226 kts | 217° |
| 2026-05-07 07:49 | 48.06309 | 16.45555 | 6705 ft | 228 kts | 221° |
| 2026-05-07 07:49 | 48.05127 | 16.44012 | 7337 ft | 227 kts | 221° |
| 2026-05-07 07:50 | 48.03937 | 16.42456 | 7938 ft | 227 kts | 220° |
| 2026-05-07 07:50 | 48.02766 | 16.40925 | 8546 ft | 227 kts | 220° |
| 2026-05-07 07:50 | 48.01573 | 16.39362 | 9121 ft | 228 kts | 220° |
| 2026-05-07 07:50 | 48.00398 | 16.37818 | 9698 ft | 228 kts | 219° |
| 2026-05-07 07:51 | 47.99203 | 16.36250 | 10240 ft | 230 kts | 220° |
| 2026-05-07 07:51 | 47.97994 | 16.34668 | 10779 ft | 232 kts | 219° |
| 2026-05-07 07:51 | 47.96799 | 16.33105 | 11328 ft | 232 kts | 220° |
| 2026-05-07 07:51 | 47.95768 | 16.31252 | 11777 ft | 235 kts | 241° |
| 2026-05-07 07:52 | 47.95173 | 16.28977 | 12279 ft | 237 kts | 248° |
| 2026-05-07 07:52 | 47.94625 | 16.26697 | 12770 ft | 237 kts | 248° |
| 2026-05-07 07:52 | 47.94069 | 16.24386 | 13229 ft | 238 kts | 248° |
| 2026-05-07 07:52 | 47.93515 | 16.22092 | 13718 ft | 238 kts | 248° |
| 2026-05-07 07:53 | 47.92948 | 16.19758 | 14191 ft | 237 kts | 247° |
| 2026-05-07 07:53 | 47.92380 | 16.17431 | 14581 ft | 240 kts | 247° |
| 2026-05-07 07:53 | 47.91822 | 16.15147 | 15060 ft | 238 kts | 247° |
| 2026-05-07 07:53 | 47.91251 | 16.12818 | 15446 ft | 239 kts | 247° |
| 2026-05-07 07:54 | 47.90683 | 16.10505 | 15888 ft | 239 kts | 247° |
| 2026-05-07 07:54 | 47.90116 | 16.08209 | 16271 ft | 238 kts | 246° |
| 2026-05-07 07:54 | 47.89540 | 16.05871 | 16655 ft | 240 kts | 246° |
| 2026-05-07 07:54 | 47.88971 | 16.03567 | 17016 ft | 240 kts | 246° |
| 2026-05-07 07:55 | 47.88393 | 16.01230 | 17389 ft | 241 kts | 246° |
| 2026-05-07 07:55 | 47.87815 | 15.98896 | 17735 ft | 241 kts | 246° |
| 2026-05-07 07:55 | 47.87161 | 15.96603 | 18030 ft | 240 kts | 235° |
| 2026-05-07 07:55 | 47.86001 | 15.94879 | 18337 ft | 239 kts | 218° |
| 2026-05-07 07:56 | 47.84665 | 15.93370 | 18634 ft | 241 kts | 217° |
| 2026-05-07 07:56 | 47.83333 | 15.91880 | 18953 ft | 242 kts | 217° |
| 2026-05-07 07:56 | 47.81985 | 15.90370 | 19297 ft | 240 kts | 216° |
| 2026-05-07 07:56 | 47.80650 | 15.88871 | 19571 ft | 243 kts | 217° |
| 2026-05-07 07:57 | 47.79311 | 15.87367 | 19871 ft | 243 kts | 216° |
| 2026-05-07 07:57 | 47.77964 | 15.85852 | 20173 ft | 242 kts | 216° |
| 2026-05-07 07:57 | 47.76620 | 15.84341 | 20413 ft | 243 kts | 216° |
| 2026-05-07 07:57 | 47.75274 | 15.82824 | 20687 ft | 242 kts | 216° |
| 2026-05-07 07:58 | 47.73934 | 15.81317 | 20854 ft | 245 kts | 216° |
| 2026-05-07 07:58 | 47.72586 | 15.79799 | 21127 ft | 244 kts | 215° |
| 2026-05-07 07:58 | 47.71226 | 15.78269 | 21289 ft | 246 kts | 216° |
| 2026-05-07 07:58 | 47.69864 | 15.76737 | 21550 ft | 244 kts | 215° |
| 2026-05-07 07:59 | 47.68510 | 15.75216 | 21684 ft | 246 kts | 215° |
| 2026-05-07 07:59 | 47.67142 | 15.73681 | 21862 ft | 246 kts | 215° |
| 2026-05-07 07:59 | 47.65770 | 15.72139 | 22041 ft | 248 kts | 215° |
| 2026-05-07 07:59 | 47.64400 | 15.70602 | 22232 ft | 247 kts | 215° |
| 2026-05-07 08:00 | 47.63030 | 15.69066 | 22329 ft | 250 kts | 215° |
| 2026-05-07 08:00 | 47.61649 | 15.67515 | 22581 ft | 247 kts | 215° |
| 2026-05-07 08:00 | 47.60266 | 15.65968 | 22668 ft | 250 kts | 215° |
| 2026-05-07 08:00 | 47.58896 | 15.64434 | 22829 ft | 250 kts | 215° |
| 2026-05-07 08:01 | 47.57515 | 15.62888 | 23025 ft | 248 kts | 215° |
| 2026-05-07 08:01 | 47.56125 | 15.61336 | 23050 ft | 252 kts | 215° |
| 2026-05-07 08:01 | 47.54730 | 15.59778 | 23209 ft | 251 kts | 214° |
| 2026-05-07 08:01 | 47.53362 | 15.58249 | 23341 ft | 251 kts | 214° |
| 2026-05-07 08:02 | 47.51972 | 15.56698 | 23502 ft | 250 kts | 214° |
| 2026-05-07 08:02 | 47.50576 | 15.55142 | 23606 ft | 250 kts | 214° |
| 2026-05-07 08:02 | 47.49189 | 15.53563 | 23688 ft | 252 kts | 218° |
| 2026-05-07 08:02 | 47.48200 | 15.51440 | 23736 ft | 261 kts | 242° |
| 2026-05-07 08:03 | 47.47664 | 15.48867 | 23845 ft | 264 kts | 246° |
| 2026-05-07 08:03 | 47.47163 | 15.46245 | 23939 ft | 265 kts | 246° |
| 2026-05-07 08:03 | 47.46660 | 15.43613 | 23955 ft | 268 kts | 247° |
| 2026-05-07 08:03 | 47.46155 | 15.40989 | 23950 ft | 270 kts | 247° |
| 2026-05-07 08:04 | 47.45641 | 15.38322 | 23950 ft | 273 kts | 247° |
| 2026-05-07 08:04 | 47.45118 | 15.35626 | 23954 ft | 275 kts | 247° |
| 2026-05-07 08:04 | 47.44586 | 15.32893 | 23964 ft | 277 kts | 246° |
| 2026-05-07 08:04 | 47.44048 | 15.30139 | 23950 ft | 279 kts | 246° |
| 2026-05-07 08:05 | 47.43510 | 15.27386 | 23950 ft | 281 kts | 246° |
| 2026-05-07 08:05 | 47.42973 | 15.24643 | 23958 ft | 282 kts | 246° |
| 2026-05-07 08:05 | 47.42429 | 15.21875 | 23957 ft | 283 kts | 246° |
| 2026-05-07 08:05 | 47.41877 | 15.19068 | 23952 ft | 283 kts | 246° |
| 2026-05-07 08:06 | 47.41332 | 15.16299 | 23957 ft | 284 kts | 246° |
| 2026-05-07 08:06 | 47.40780 | 15.13503 | 23956 ft | 284 kts | 246° |
| 2026-05-07 08:06 | 47.40224 | 15.10688 | 23956 ft | 284 kts | 246° |
| 2026-05-07 08:06 | 47.39676 | 15.07920 | 23951 ft | 285 kts | 246° |
| 2026-05-07 08:07 | 47.39117 | 15.05099 | 23950 ft | 285 kts | 246° |
| 2026-05-07 08:07 | 47.38567 | 15.02325 | 23969 ft | 285 kts | 246° |
| 2026-05-07 08:07 | 47.38005 | 14.99509 | 23974 ft | 287 kts | 246° |
| 2026-05-07 08:07 | 47.37441 | 14.96674 | 23969 ft | 288 kts | 246° |
| 2026-05-07 08:08 | 47.36875 | 14.93840 | 23973 ft | 290 kts | 246° |
| 2026-05-07 08:08 | 47.36310 | 14.91008 | 23975 ft | 290 kts | 246° |
| 2026-05-07 08:08 | 47.35743 | 14.88172 | 23971 ft | 291 kts | 246° |
| 2026-05-07 08:08 | 47.35168 | 14.85303 | 23982 ft | 292 kts | 246° |
| 2026-05-07 08:09 | 47.34590 | 14.82418 | 23978 ft | 293 kts | 246° |
| 2026-05-07 08:09 | 47.34016 | 14.79559 | 23977 ft | 294 kts | 247° |
| 2026-05-07 08:09 | 47.33433 | 14.76664 | 23970 ft | 295 kts | 247° |
| 2026-05-07 08:09 | 47.32850 | 14.73765 | 23976 ft | 295 kts | 247° |
| 2026-05-07 08:10 | 47.32271 | 14.70895 | 23976 ft | 295 kts | 247° |
| 2026-05-07 08:10 | 47.31688 | 14.68005 | 23977 ft | 295 kts | 247° |
| 2026-05-07 08:10 | 47.31102 | 14.65114 | 23969 ft | 295 kts | 247° |
| 2026-05-07 08:10 | 47.30515 | 14.62210 | 23972 ft | 296 kts | 247° |
| 2026-05-07 08:11 | 47.29930 | 14.59329 | 23984 ft | 296 kts | 247° |
| 2026-05-07 08:11 | 47.29337 | 14.56412 | 23980 ft | 297 kts | 247° |
| 2026-05-07 08:11 | 47.28742 | 14.53484 | 23976 ft | 298 kts | 247° |
| 2026-05-07 08:11 | 47.28152 | 14.50590 | 23971 ft | 298 kts | 246° |
| 2026-05-07 08:12 | 47.27557 | 14.47672 | 23972 ft | 298 kts | 247° |
| 2026-05-07 08:12 | 47.26965 | 14.44775 | 23972 ft | 298 kts | 246° |
| 2026-05-07 08:12 | 47.26369 | 14.41860 | 23979 ft | 298 kts | 247° |
| 2026-05-07 08:12 | 47.25770 | 14.38938 | 23989 ft | 299 kts | 247° |
| 2026-05-07 08:13 | 47.25170 | 14.36013 | 23982 ft | 299 kts | 247° |
| 2026-05-07 08:13 | 47.24569 | 14.33087 | 23985 ft | 299 kts | 246° |
| 2026-05-07 08:13 | 47.23972 | 14.30191 | 23985 ft | 299 kts | 246° |
| 2026-05-07 08:13 | 47.23380 | 14.27268 | 23971 ft | 299 kts | 248° |
| 2026-05-07 08:14 | 47.23212 | 14.24170 | 23983 ft | 310 kts | 266° |
| 2026-05-07 08:14 | 47.23487 | 14.21013 | 23970 ft | 312 kts | 269° |
| 2026-05-07 08:14 | 47.23788 | 14.17866 | 23961 ft | 312 kts | 269° |
| 2026-05-07 08:14 | 47.24086 | 14.14752 | 23952 ft | 312 kts | 269° |
| 2026-05-07 08:15 | 47.24385 | 14.11586 | 23946 ft | 312 kts | 269° |
| 2026-05-07 08:15 | 47.24681 | 14.08419 | 23943 ft | 311 kts | 269° |
| 2026-05-07 08:15 | 47.24970 | 14.05309 | 23944 ft | 311 kts | 269° |
| 2026-05-07 08:15 | 47.25260 | 14.02164 | 23936 ft | 310 kts | 269° |
| 2026-05-07 08:16 | 47.25546 | 13.99035 | 23933 ft | 310 kts | 269° |
| 2026-05-07 08:16 | 47.25832 | 13.95898 | 23928 ft | 310 kts | 269° |
| 2026-05-07 08:16 | 47.26116 | 13.92765 | 23942 ft | 310 kts | 269° |
| 2026-05-07 08:16 | 47.26401 | 13.89604 | 23935 ft | 309 kts | 269° |
| 2026-05-07 08:17 | 47.26683 | 13.86471 | 23941 ft | 309 kts | 269° |
| 2026-05-07 08:17 | 47.26958 | 13.83387 | 23943 ft | 309 kts | 269° |
| 2026-05-07 08:17 | 47.27237 | 13.80257 | 23955 ft | 308 kts | 269° |
| 2026-05-07 08:17 | 47.27607 | 13.76093 | 23950 ft | 308 kts | 269° |
| 2026-05-07 08:18 | 47.27792 | 13.74007 | 23956 ft | 307 kts | 269° |
| 2026-05-07 08:18 | 47.28065 | 13.70910 | 23967 ft | 307 kts | 269° |
| 2026-05-07 08:18 | 47.28338 | 13.67800 | 23961 ft | 307 kts | 269° |
| 2026-05-07 08:18 | 47.28610 | 13.64693 | 23969 ft | 306 kts | 269° |
| 2026-05-07 08:19 | 47.28880 | 13.61610 | 23971 ft | 307 kts | 269° |
| 2026-05-07 08:19 | 47.29150 | 13.58501 | 23966 ft | 307 kts | 269° |
| 2026-05-07 08:19 | 47.29420 | 13.55386 | 23965 ft | 306 kts | 269° |
| 2026-05-07 08:19 | 47.29644 | 13.52297 | 23971 ft | 302 kts | 264° |
| 2026-05-07 08:20 | 47.29517 | 13.49252 | 23974 ft | 299 kts | 262° |
| 2026-05-07 08:20 | 47.29777 | 13.46162 | 24009 ft | 307 kts | 274° |
| 2026-05-07 08:20 | 47.30243 | 13.43128 | 24007 ft | 309 kts | 275° |
| 2026-05-07 08:20 | 47.30621 | 13.40033 | 23981 ft | 305 kts | 270° |
| 2026-05-07 08:21 | 47.30870 | 13.36947 | 23988 ft | 305 kts | 270° |
| 2026-05-07 08:21 | 47.31134 | 13.33819 | 23980 ft | 306 kts | 269° |
| 2026-05-07 08:21 | 47.31383 | 13.30708 | 23969 ft | 306 kts | 269° |
| 2026-05-07 08:21 | 47.31631 | 13.27597 | 23975 ft | 307 kts | 269° |
| 2026-05-07 08:22 | 47.31882 | 13.24503 | 23969 ft | 307 kts | 269° |
| 2026-05-07 08:22 | 47.32140 | 13.21374 | 23971 ft | 307 kts | 269° |
| 2026-05-07 08:22 | 47.32395 | 13.18301 | 23982 ft | 306 kts | 269° |
| 2026-05-07 08:22 | 47.32655 | 13.15189 | 23988 ft | 306 kts | 269° |
| 2026-05-07 08:23 | 47.32915 | 13.12088 | 23985 ft | 306 kts | 269° |
| 2026-05-07 08:23 | 47.33178 | 13.08953 | 23991 ft | 306 kts | 269° |
| 2026-05-07 08:23 | 47.33438 | 13.05816 | 23708 ft | 315 kts | 270° |
| 2026-05-07 08:23 | 47.33703 | 13.02581 | 23289 ft | 325 kts | 270° |
| 2026-05-07 08:24 | 47.33976 | 12.99274 | 22863 ft | 334 kts | 271° |
| 2026-05-07 08:24 | 47.34262 | 12.95822 | 22488 ft | 339 kts | 271° |
| 2026-05-07 08:24 | 47.34548 | 12.92391 | 22226 ft | 339 kts | 271° |
| 2026-05-07 08:24 | 47.34829 | 12.89050 | 22105 ft | 330 kts | 271° |
| 2026-05-07 08:25 | 47.35108 | 12.85683 | 21725 ft | 328 kts | 271° |
| 2026-05-07 08:25 | 47.35382 | 12.82360 | 21319 ft | 327 kts | 272° |
| 2026-05-07 08:25 | 47.35654 | 12.79041 | 20861 ft | 328 kts | 272° |
| 2026-05-07 08:25 | 47.35923 | 12.75755 | 20426 ft | 327 kts | 272° |
| 2026-05-07 08:26 | 47.36465 | 12.69081 | 19562 ft | 328 kts | 273° |
| 2026-05-07 08:26 | 47.36734 | 12.65749 | 19105 ft | 328 kts | 273° |
| 2026-05-07 08:26 | 47.37001 | 12.62443 | 18673 ft | 329 kts | 273° |
| 2026-05-07 08:27 | 47.37269 | 12.59100 | 18225 ft | 329 kts | 274° |
| 2026-05-07 08:27 | 47.37537 | 12.55753 | 17772 ft | 330 kts | 274° |
| 2026-05-07 08:27 | 47.37804 | 12.52396 | 17340 ft | 329 kts | 274° |
| 2026-05-07 08:27 | 47.38066 | 12.49099 | 16902 ft | 329 kts | 274° |
| 2026-05-07 08:28 | 47.38331 | 12.45741 | 16449 ft | 330 kts | 274° |
| 2026-05-07 08:28 | 47.38594 | 12.42401 | 16000 ft | 329 kts | 275° |
| 2026-05-07 08:28 | 47.38857 | 12.39046 | 15563 ft | 328 kts | 275° |
| 2026-05-07 08:28 | 47.39115 | 12.35747 | 15128 ft | 327 kts | 275° |
| 2026-05-07 08:29 | 47.39388 | 12.32404 | 14671 ft | 326 kts | 275° |
| 2026-05-07 08:29 | 47.39699 | 12.29105 | 14225 ft | 325 kts | 276° |
| 2026-05-07 08:29 | 47.40014 | 12.25824 | 13802 ft | 324 kts | 276° |
| 2026-05-07 08:29 | 47.40324 | 12.22566 | 13343 ft | 323 kts | 276° |
| 2026-05-07 08:30 | 47.40635 | 12.19282 | 12863 ft | 323 kts | 276° |
| 2026-05-07 08:30 | 47.40940 | 12.16047 | 12463 ft | 322 kts | 276° |
| 2026-05-07 08:30 | 47.41247 | 12.12775 | 12031 ft | 321 kts | 276° |
| 2026-05-07 08:30 | 47.41552 | 12.09512 | 11591 ft | 321 kts | 276° |
| 2026-05-07 08:31 | 47.41854 | 12.06258 | 11144 ft | 321 kts | 276° |
| 2026-05-07 08:31 | 47.42149 | 12.03065 | 10678 ft | 312 kts | 275° |
| 2026-05-07 08:31 | 47.42432 | 11.99972 | 10278 ft | 297 kts | 275° |
| 2026-05-07 08:31 | 47.42638 | 11.97284 | 9898 ft | 285 kts | 269° |
| 2026-05-07 08:32 | 47.42150 | 11.94596 | 9602 ft | 266 kts | 233° |
| 2026-05-07 08:32 | 47.40812 | 11.92772 | 9558 ft | 263 kts | 214° |
| 2026-05-07 08:32 | 47.39301 | 11.91248 | 9516 ft | 263 kts | 212° |
| 2026-05-07 08:32 | 47.37770 | 11.89774 | 9497 ft | 262 kts | 211° |
| 2026-05-07 08:33 | 47.36237 | 11.88337 | 9498 ft | 260 kts | 211° |
| 2026-05-07 08:33 | 47.34732 | 11.86950 | 9484 ft | 248 kts | 210° |
| 2026-05-07 08:33 | 47.33341 | 11.85593 | 9476 ft | 236 kts | 215° |
| 2026-05-07 08:33 | 47.32334 | 11.83783 | 9463 ft | 224 kts | 244° |
| 2026-05-07 08:34 | 47.32066 | 11.81542 | 9483 ft | 223 kts | 267° |
| 2026-05-07 08:34 | 47.32069 | 11.79263 | 9405 ft | 229 kts | 266° |
| 2026-05-07 08:34 | 47.31930 | 11.76880 | 9142 ft | 234 kts | 259° |
| 2026-05-07 08:34 | 47.31646 | 11.74532 | 8694 ft | 231 kts | 256° |
| 2026-05-07 08:35 | 47.31329 | 11.72252 | 8203 ft | 228 kts | 256° |
| 2026-05-07 08:35 | 47.31025 | 11.70037 | 7803 ft | 212 kts | 256° |
| 2026-05-07 08:35 | 47.30741 | 11.67989 | 7329 ft | 202 kts | 256° |
| 2026-05-07 08:35 | 47.30469 | 11.66035 | 6974 ft | 188 kts | 256° |
| 2026-05-07 08:36 | 47.30205 | 11.64233 | 6665 ft | 173 kts | 255° |
| 2026-05-07 08:36 | 47.29964 | 11.62555 | 6367 ft | 157 kts | 255° |
| 2026-05-07 08:36 | 47.29752 | 11.61044 | 6116 ft | 148 kts | 255° |
| 2026-05-07 08:36 | 47.29549 | 11.59585 | 5881 ft | 146 kts | 255° |
| 2026-05-07 08:37 | 47.29340 | 11.58117 | 5650 ft | 144 kts | 254° |
| 2026-05-07 08:37 | 47.29135 | 11.56696 | 5424 ft | 142 kts | 254° |
| 2026-05-07 08:37 | 47.28930 | 11.55278 | 5190 ft | 140 kts | 255° |
| 2026-05-07 08:37 | 47.28732 | 11.53894 | 4953 ft | 139 kts | 255° |
| 2026-05-07 08:38 | 47.28531 | 11.52494 | 4703 ft | 139 kts | 256° |
| 2026-05-07 08:38 | 47.28334 | 11.51109 | 4466 ft | 137 kts | 256° |
| 2026-05-07 08:38 | 47.28138 | 11.49756 | 4235 ft | 136 kts | 258° |
| 2026-05-07 08:38 | 47.27947 | 11.48375 | 4088 ft | 142 kts | 258° |
| 2026-05-07 08:39 | 47.27740 | 11.46927 | 3870 ft | 146 kts | 258° |
| 2026-05-07 08:39 | 47.27520 | 11.45465 | 3628 ft | 148 kts | 259° |
| 2026-05-07 08:39 | 47.27288 | 11.43970 | 3371 ft | 151 kts | 258° |
| 2026-05-07 08:39 | 47.27070 | 11.42473 | 3114 ft | 151 kts | 257° |
| 2026-05-07 08:40 | 47.26853 | 11.40960 | 2854 ft | 151 kts | 258° |
| 2026-05-07 08:40 | 47.26635 | 11.39458 | 2595 ft | 149 kts | 256° |
| 2026-05-07 08:40 | 47.26423 | 11.37984 | 2341 ft | 144 kts | 257° |
| 2026-05-07 08:40 | 47.26250 | 11.36556 | 2085 ft | 139 kts | 261° |
| 2026-05-07 08:41 | 47.26100 | 11.35183 | 1915 ft | 133 kts | 261° |
| 2026-05-07 08:41 | 47.25976 | 11.34015 | 1916 ft | 80 kts | 261° |
| 2026-05-07 08:41 | 47.25943 | 11.33720 | 1917 ft | 0 kts | 256° |
| 2026-05-07 08:41 | 47.25927 | 11.33604 | 1918 ft | 22 kts | 260° |
| 2026-05-07 08:42 | 47.25904 | 11.33337 | 1919 ft | 24 kts | 260° |
| 2026-05-07 08:42 | 47.25848 | 11.33166 | 1920 ft | 8 kts | 248° |
| 2026-05-07 08:42 | 47.25885 | 11.33190 | 1920 ft | 17 kts | 74° |
| 2026-05-07 08:42 | 47.25919 | 11.33468 | 1919 ft | 35 kts | 82° |
| 2026-05-07 08:43 | 47.25964 | 11.33885 | 1917 ft | 46 kts | 81° |
| 2026-05-07 08:43 | 47.26017 | 11.34384 | 1915 ft | 52 kts | 81° |
| 2026-05-07 08:43 | 47.26074 | 11.34907 | 1912 ft | 47 kts | 80° |
| 2026-05-07 08:43 | 47.26106 | 11.35215 | 1910 ft | 10 kts | 101° |
| 2026-05-07 08:44 | 47.26018 | 11.35270 | 1910 ft | 22 kts | 175° |
| 2026-05-07 08:44 | 47.25954 | 11.35283 | 1910 ft | 0 kts | 170° |
| 2026-05-07 08:45 | 47.25951 | 11.35284 | 1910 ft | 3 kts | 169° |
| 2026-05-07 08:46 | 47.25911 | 11.35282 | 1910 ft | 10 kts | 207° |
| 2026-05-07 08:46 | 47.25891 | 11.35196 | 1911 ft | 10 kts | 256° |
| 2026-05-07 08:46 | 47.25865 | 11.35173 | 1911 ft | 6 kts | 175° |
| 2026-05-07 08:46 | 47.25840 | 11.35179 | 1911 ft | 0 kts | 170° |